Time;durP1;ratioP1;P1;durP2;ratioP2;P2;SDS_P1;SDS_P2;PMS_P1;PMS_P2;Temp;Humidity;BMP_temperature;BMP_pressure;BME280_temperature;BME280_humidity;BME280_pressure;Samples;Min_cycle;Max_cycle;Signal;HPM_P1;HPM_P2
2023/04/08 00:01:48;;;;;;;708.83;664.37;;;8.20;99.90;;;;;;5051471;28;21001;-79
2023/04/08 00:04:15;;;;;;;711.03;664.80;;;8.20;99.90;;;;;;5039927;28;20452;-79
2023/04/08 00:06:46;;;;;;;706.80;659.60;;;8.20;99.90;;;;;;5032792;28;20499;-78
2023/04/08 00:09:15;;;;;;;689.53;644.47;;;8.20;99.90;;;;;;5052236;28;20544;-79
2023/04/08 00:11:42;;;;;;;702.40;654.77;;;8.10;99.90;;;;;;5051432;28;20475;-79
2023/04/08 00:14:09;;;;;;;715.90;666.60;;;8.10;99.90;;;;;;5051677;28;20513;-79
2023/04/08 00:16:36;;;;;;;718.13;669.33;;;8.20;99.90;;;;;;5032634;28;20510;-79
2023/04/08 00:19:05;;;;;;;706.87;658.87;;;8.20;99.90;;;;;;5050210;28;20910;-79
2023/04/08 00:21:32;;;;;;;710.67;662.20;;;8.10;99.90;;;;;;5042666;28;20456;-79
2023/04/08 00:24:00;;;;;;;700.37;652.40;;;8.20;99.90;;;;;;5032266;28;20464;-79
2023/04/08 00:26:28;;;;;;;698.17;649.47;;;8.20;99.90;;;;;;5032712;28;20455;-79
2023/04/08 00:29:00;;;;;;;703.20;653.40;;;8.20;99.90;;;;;;5033260;28;20553;-79
2023/04/08 00:31:26;;;;;;;698.30;648.63;;;8.10;99.90;;;;;;5045433;28;20536;-79
2023/04/08 00:33:57;;;;;;;702.87;653.90;;;8.20;99.90;;;;;;5032527;28;20448;-80
2023/04/08 00:36:26;;;;;;;686.43;638.27;;;8.10;99.90;;;;;;5031864;28;20459;-79
2023/04/08 00:38:56;;;;;;;711.07;662.17;;;8.20;99.90;;;;;;5051487;28;20859;-79
2023/04/08 00:41:25;;;;;;;713.77;664.90;;;8.20;99.90;;;;;;5044463;28;20986;-79
2023/04/08 00:43:54;;;;;;;720.83;671.67;;;8.20;99.90;;;;;;5043300;28;20538;-79
2023/04/08 00:46:22;;;;;;;727.87;678.07;;;8.20;99.90;;;;;;5038244;28;20845;-79
2023/04/08 00:48:49;;;;;;;721.33;671.03;;;8.20;99.90;;;;;;5033117;28;20490;-79
2023/04/08 00:51:27;;;;;;;698.00;647.23;;;8.20;99.90;;;;;;5031937;28;20455;-79
2023/04/08 00:53:55;;;;;;;697.60;644.80;;;8.20;99.90;;;;;;5030933;28;20547;-79
2023/04/08 00:56:25;;;;;;;692.27;639.90;;;8.10;99.90;;;;;;5046982;28;20451;-78
2023/04/08 00:58:55;;;;;;;704.87;649.60;;;8.10;99.90;;;;;;5051377;28;20467;-78
2023/04/08 01:01:27;;;;;;;736.47;676.17;;;8.10;99.90;;;;;;5045525;28;20483;-79
2023/04/08 01:04:02;;;;;;;754.43;691.20;;;8.00;99.90;;;;;;5037368;28;20455;-79
2023/04/08 01:06:41;;;;;;;746.00;680.23;;;8.00;99.90;;;;;;5045632;28;20513;-78
2023/04/08 01:09:20;;;;;;;752.07;685.37;;;8.00;99.90;;;;;;5040628;28;20478;-79
2023/04/08 01:11:54;;;;;;;758.63;689.40;;;8.00;99.90;;;;;;5036971;28;20916;-79
2023/04/08 01:14:26;;;;;;;747.00;679.97;;;8.00;99.90;;;;;;5041216;28;20451;-79
2023/04/08 01:16:56;;;;;;;756.33;685.73;;;7.90;99.90;;;;;;5040144;28;20964;-79
2023/04/08 01:19:29;;;;;;;743.53;672.77;;;8.00;99.90;;;;;;5048503;28;20916;-79
2023/04/08 01:22:03;;;;;;;756.00;685.53;;;8.00;99.90;;;;;;5047730;28;20447;-79
2023/04/08 01:24:36;;;;;;;744.97;675.47;;;8.00;99.90;;;;;;5034911;28;20451;-79
2023/04/08 01:27:07;;;;;;;751.37;679.87;;;8.00;99.90;;;;;;5049849;28;20447;-79
2023/04/08 01:29:36;;;;;;;761.53;688.50;;;8.00;99.90;;;;;;5046354;28;20577;-79
2023/04/08 01:32:08;;;;;;;756.47;681.73;;;8.00;99.90;;;;;;5058714;22;20480;-82
2023/04/08 01:34:36;;;;;;;755.57;680.07;;;8.00;99.90;;;;;;5039912;28;20453;-82
2023/04/08 01:37:05;;;;;;;746.07;671.57;;;8.00;99.90;;;;;;5048391;28;20476;-83
2023/04/08 01:39:33;;;;;;;753.30;675.10;;;8.00;99.90;;;;;;5049341;28;21017;-82
2023/04/08 01:42:01;;;;;;;750.97;676.20;;;8.00;99.90;;;;;;5061815;28;20533;-82
2023/04/08 01:44:32;;;;;;;749.53;672.53;;;8.00;99.90;;;;;;5068803;28;20473;-82
2023/04/08 01:46:59;;;;;;;751.70;671.33;;;8.00;99.90;;;;;;5033815;28;20447;-82
2023/04/08 01:49:27;;;;;;;748.70;670.73;;;8.00;99.90;;;;;;5066519;28;20474;-82
2023/04/08 01:51:58;;;;;;;747.80;671.13;;;7.90;99.90;;;;;;5059715;28;20451;-83
2023/04/08 01:54:24;;;;;;;750.07;672.60;;;8.00;99.90;;;;;;5036616;28;20463;-82
2023/04/08 01:56:55;;;;;;;740.73;664.60;;;7.90;99.90;;;;;;5066408;28;20453;-82
2023/04/08 01:59:29;;;;;;;746.10;668.30;;;7.90;99.90;;;;;;5039286;28;20471;-82
2023/04/08 02:02:00;;;;;;;738.93;660.07;;;8.00;99.90;;;;;;5067818;28;20450;-82
2023/04/08 02:04:27;;;;;;;746.80;666.70;;;7.90;99.90;;;;;;5045391;28;20457;-83
2023/04/08 02:06:56;;;;;;;758.60;678.90;;;8.00;99.90;;;;;;5057117;28;20447;-82
2023/04/08 02:09:23;;;;;;;761.23;682.00;;;7.90;99.90;;;;;;5054774;28;20970;-83
2023/04/08 02:11:51;;;;;;;762.63;682.50;;;7.90;99.90;;;;;;5061916;28;20474;-82
2023/04/08 02:14:18;;;;;;;765.17;684.67;;;7.90;99.90;;;;;;5053457;28;20598;-83
2023/04/08 02:16:53;;;;;;;742.97;664.33;;;7.90;99.90;;;;;;5074259;28;20451;-82
2023/04/08 02:19:30;;;;;;;737.17;660.20;;;7.90;99.90;;;;;;5069879;28;20490;-82
2023/04/08 02:22:02;;;;;;;738.53;659.53;;;7.90;99.90;;;;;;5054825;28;20892;-82
2023/04/08 02:24:30;;;;;;;743.20;666.10;;;7.90;99.90;;;;;;5058136;28;20458;-82
2023/04/08 02:26:58;;;;;;;737.50;659.20;;;7.90;99.90;;;;;;5071313;28;20450;-82
2023/04/08 02:29:26;;;;;;;745.20;666.67;;;7.90;99.90;;;;;;5057568;28;20480;-82
2023/04/08 02:31:54;;;;;;;737.97;658.83;;;8.00;99.90;;;;;;5035982;28;20470;-82
2023/04/08 02:34:24;;;;;;;753.13;674.37;;;7.90;99.90;;;;;;5054795;28;20455;-83
2023/04/08 02:36:51;;;;;;;740.37;660.50;;;7.90;99.90;;;;;;5048300;28;20451;-82
2023/04/08 02:39:19;;;;;;;751.33;672.37;;;8.00;99.90;;;;;;5055536;28;20561;-81
2023/04/08 02:41:47;;;;;;;755.83;676.87;;;7.90;99.90;;;;;;5041849;28;20545;-82
2023/04/08 02:44:15;;;;;;;739.53;660.33;;;8.00;99.90;;;;;;5054249;28;20470;-81
2023/04/08 02:46:41;;;;;;;764.13;683.87;;;8.00;99.90;;;;;;5064924;28;20457;-82
2023/04/08 02:49:08;;;;;;;774.77;692.47;;;8.00;99.90;;;;;;5055874;28;20487;-83
2023/04/08 02:51:37;;;;;;;760.63;680.27;;;8.00;99.90;;;;;;5058275;28;20447;-83
2023/04/08 02:54:04;;;;;;;762.03;683.20;;;8.00;99.90;;;;;;5065089;28;20451;-83
2023/04/08 02:56:30;;;;;;;773.17;693.90;;;7.90;99.90;;;;;;5056227;28;20447;-83
2023/04/08 02:58:58;;;;;;;736.47;657.63;;;7.90;99.90;;;;;;5061208;28;20845;-83
2023/04/08 03:01:25;;;;;;;733.50;657.20;;;8.00;99.90;;;;;;5056897;28;20454;-83
2023/04/08 03:03:52;;;;;;;733.37;656.50;;;7.90;99.90;;;;;;5073441;28;20819;-83
2023/04/08 03:06:19;;;;;;;738.27;662.07;;;7.90;99.90;;;;;;5051555;28;20537;-84
2023/04/08 03:08:47;;;;;;;737.60;660.97;;;7.90;99.90;;;;;;5043317;28;20841;-83
2023/04/08 03:11:14;;;;;;;739.33;663.00;;;7.90;99.90;;;;;;5029530;28;20830;-83
2023/04/08 03:13:41;;;;;;;731.20;656.70;;;7.90;99.90;;;;;;5073471;28;20454;-83
2023/04/08 03:16:08;;;;;;;720.60;645.30;;;7.90;99.90;;;;;;5054451;28;20472;-83
2023/04/08 03:18:35;;;;;;;723.03;645.30;;;7.90;99.90;;;;;;5063580;28;20471;-83
2023/04/08 03:21:02;;;;;;;729.43;651.40;;;7.90;99.90;;;;;;5053465;28;20458;-83
2023/04/08 03:23:31;;;;;;;729.63;651.57;;;7.90;99.90;;;;;;5052747;28;20447;-84
2023/04/08 03:25:59;;;;;;;736.30;657.87;;;7.90;99.90;;;;;;5052551;28;20562;-83
2023/04/08 03:28:26;;;;;;;748.27;670.13;;;7.90;99.90;;;;;;5052884;28;20847;-83
2023/04/08 03:30:53;;;;;;;736.43;657.47;;;7.90;99.90;;;;;;5052804;28;21002;-84
2023/04/08 03:33:20;;;;;;;732.57;652.90;;;7.90;99.90;;;;;;5063858;28;20497;-82
2023/04/08 03:35:47;;;;;;;734.93;654.60;;;8.00;99.90;;;;;;5065551;28;20531;-82
2023/04/08 03:38:14;;;;;;;742.77;663.37;;;8.00;99.90;;;;;;5057706;28;20471;-83
2023/04/08 03:40:41;;;;;;;740.33;660.73;;;8.00;99.90;;;;;;5072592;28;20454;-83
2023/04/08 03:43:11;;;;;;;729.90;652.40;;;7.90;99.90;;;;;;5068431;28;20490;-84
2023/04/08 03:45:37;;;;;;;752.53;673.37;;;7.90;99.90;;;;;;5052380;28;21017;-83
2023/04/08 03:48:05;;;;;;;735.33;654.77;;;7.90;99.90;;;;;;5055270;28;20494;-83
2023/04/08 03:50:32;;;;;;;744.10;663.50;;;8.00;99.90;;;;;;5072510;28;20548;-83
2023/04/08 03:52:58;;;;;;;753.60;671.67;;;8.00;99.90;;;;;;5066601;28;20939;-82
2023/04/08 03:55:26;;;;;;;739.87;659.47;;;8.00;99.90;;;;;;5062592;28;20451;-82
2023/04/08 03:57:53;;;;;;;731.97;651.07;;;8.00;99.90;;;;;;5052268;28;20475;-76
2023/04/08 04:00:22;;;;;;;739.50;658.90;;;8.00;99.90;;;;;;5068805;28;20439;-82
2023/04/08 04:02:51;;;;;;;729.10;649.70;;;8.00;99.90;;;;;;5072081;28;20450;-82
2023/04/08 04:05:18;;;;;;;735.63;654.67;;;8.00;99.90;;;;;;5055954;28;20513;-82
2023/04/08 04:07:45;;;;;;;721.70;642.73;;;8.00;99.90;;;;;;5051979;28;20451;-83
2023/04/08 04:10:12;;;;;;;744.03;664.73;;;8.00;99.90;;;;;;5066124;28;20477;-82
2023/04/08 04:12:39;;;;;;;747.90;666.83;;;8.00;99.90;;;;;;5071891;28;20457;-83
2023/04/08 04:15:07;;;;;;;751.00;671.57;;;8.00;99.90;;;;;;5058562;28;20774;-83
2023/04/08 04:17:38;;;;;;;752.77;672.80;;;8.00;99.90;;;;;;5052381;28;20526;-83
2023/04/08 04:20:06;;;;;;;761.77;680.80;;;8.00;99.90;;;;;;5044437;28;20539;-83
2023/04/08 04:22:33;;;;;;;741.73;661.07;;;8.00;99.90;;;;;;5051954;28;20451;-83
2023/04/08 04:24:59;;;;;;;747.27;665.50;;;8.00;99.90;;;;;;5051918;28;20459;-82
2023/04/08 04:27:26;;;;;;;740.13;646.40;;;8.00;99.90;;;;;;5070410;28;20453;-83
2023/04/08 04:29:53;;;;;;;771.70;690.23;;;8.00;99.90;;;;;;5071710;28;20543;-83
2023/04/08 04:32:20;;;;;;;770.93;689.03;;;8.00;99.90;;;;;;5053757;28;20463;-82
2023/04/08 04:34:48;;;;;;;763.67;681.63;;;7.90;99.90;;;;;;5051412;28;20935;-82
2023/04/08 04:37:15;;;;;;;789.53;706.13;;;8.00;99.90;;;;;;5067660;28;20458;-82
2023/04/08 04:39:42;;;;;;;759.93;677.20;;;7.90;99.90;;;;;;5071554;28;20478;-82
2023/04/08 04:42:09;;;;;;;757.80;674.70;;;7.90;99.90;;;;;;5056706;28;20447;-82
2023/04/08 04:44:36;;;;;;;769.13;684.20;;;8.00;99.90;;;;;;5052437;28;20475;-82
2023/04/08 04:47:03;;;;;;;748.30;656.23;;;8.00;99.90;;;;;;5051122;28;20451;-82
2023/04/08 04:49:30;;;;;;;767.23;661.50;;;7.90;99.90;;;;;;5052300;28;20479;-82
2023/04/08 04:51:58;;;;;;;770.43;677.97;;;7.90;99.90;;;;;;5033788;28;20450;-82
2023/04/08 04:54:25;;;;;;;787.20;700.90;;;7.90;99.90;;;;;;5063472;28;20443;-83
2023/04/08 04:56:52;;;;;;;776.40;690.73;;;7.90;99.90;;;;;;5053495;28;20458;-82
2023/04/08 04:59:18;;;;;;;795.03;709.27;;;7.90;99.90;;;;;;5059601;28;20471;-83
2023/04/08 05:01:45;;;;;;;792.27;708.70;;;7.90;99.90;;;;;;5051036;28;20452;-82
2023/04/08 05:04:12;;;;;;;772.60;687.70;;;7.80;99.90;;;;;;5052129;28;20443;-82
2023/04/08 05:06:39;;;;;;;753.87;659.73;;;7.80;99.90;;;;;;5051890;28;20457;-82
2023/04/08 05:09:07;;;;;;;758.10;666.90;;;7.70;99.90;;;;;;5060393;28;20473;-83
2023/04/08 05:11:34;;;;;;;754.83;672.77;;;7.60;99.90;;;;;;5071588;28;21009;-82
2023/04/08 05:14:01;;;;;;;761.90;678.00;;;7.40;99.90;;;;;;5061588;28;20447;-83
2023/04/08 05:16:27;;;;;;;758.43;674.30;;;7.40;99.90;;;;;;5054172;28;20459;-83
2023/04/08 05:18:54;;;;;;;779.07;695.30;;;7.30;99.90;;;;;;5061189;28;20472;-83
2023/04/08 05:21:23;;;;;;;781.70;696.10;;;7.20;99.90;;;;;;5053876;28;20534;-84
2023/04/08 05:23:51;;;;;;;763.13;682.93;;;7.00;99.90;;;;;;5056253;28;20497;-83
2023/04/08 05:26:20;;;;;;;758.40;681.00;;;7.00;99.90;;;;;;5053596;28;20451;-83
2023/04/08 05:28:47;;;;;;;740.67;664.07;;;7.10;99.90;;;;;;5056905;28;20470;-83
2023/04/08 05:31:16;;;;;;;741.97;666.50;;;7.30;99.90;;;;;;5058271;28;20472;-83
2023/04/08 05:33:43;;;;;;;739.87;661.40;;;7.30;99.90;;;;;;5069301;28;20500;-83
2023/04/08 05:36:11;;;;;;;733.70;654.40;;;7.40;99.90;;;;;;5075075;28;20454;-84
2023/04/08 05:38:39;;;;;;;733.57;651.70;;;7.50;99.90;;;;;;5063036;28;20467;-83
2023/04/08 05:41:07;;;;;;;739.07;649.57;;;7.60;99.90;;;;;;5060524;28;21018;-84
2023/04/08 05:43:35;;;;;;;756.27;641.50;;;7.70;99.90;;;;;;5045130;28;20802;-84
2023/04/08 05:46:06;;;;;;;737.57;655.33;;;7.80;99.90;;;;;;5055739;28;20808;-84
2023/04/08 05:48:34;;;;;;;734.20;630.10;;;7.80;99.90;;;;;;5054380;28;20983;-84
2023/04/08 05:51:01;;;;;;;739.73;627.63;;;7.90;99.90;;;;;;5068258;28;20566;-83
2023/04/08 05:53:29;;;;;;;750.57;642.67;;;8.00;99.90;;;;;;5062970;28;20455;-84
2023/04/08 05:55:56;;;;;;;749.30;631.50;;;8.00;99.90;;;;;;5037355;28;20451;-83
2023/04/08 05:58:23;;;;;;;733.10;653.47;;;8.00;99.90;;;;;;5063217;28;20471;-83
2023/04/08 06:00:51;;;;;;;712.97;634.43;;;8.10;99.90;;;;;;5061869;28;20452;-84
2023/04/08 06:03:17;;;;;;;723.17;644.97;;;8.20;99.90;;;;;;5072934;28;20447;-83
2023/04/08 06:05:46;;;;;;;757.13;681.23;;;8.20;99.90;;;;;;5051080;28;20827;-83
2023/04/08 06:08:12;;;;;;;751.77;672.97;;;8.20;99.90;;;;;;5070021;28;20986;-83
2023/04/08 06:10:39;;;;;;;757.63;679.80;;;8.30;99.90;;;;;;5060756;28;20490;-84
2023/04/08 06:13:06;;;;;;;736.10;661.60;;;8.30;99.90;;;;;;5056100;28;20455;-84
2023/04/08 06:15:34;;;;;;;739.73;665.20;;;8.30;99.90;;;;;;5060087;28;20453;-84
2023/04/08 06:18:03;;;;;;;752.67;678.83;;;8.50;99.90;;;;;;5066728;28;20998;-84
2023/04/08 06:20:30;;;;;;;751.40;675.50;;;8.50;99.90;;;;;;5072401;28;20447;-84
2023/04/08 06:22:57;;;;;;;759.70;682.17;;;8.60;99.90;;;;;;5058129;28;20982;-84
2023/04/08 06:25:23;;;;;;;749.10;675.37;;;8.60;99.90;;;;;;5054747;28;20456;-83
2023/04/08 06:27:50;;;;;;;737.10;663.83;;;8.60;99.90;;;;;;5069448;28;20471;-83
2023/04/08 06:30:17;;;;;;;739.77;666.10;;;8.80;99.90;;;;;;5058487;28;21065;-84
2023/04/08 06:32:46;;;;;;;742.13;668.07;;;8.80;99.90;;;;;;5063264;28;20503;-84
2023/04/08 06:35:14;;;;;;;750.97;679.83;;;8.90;99.90;;;;;;5074376;28;20450;-84
2023/04/08 06:37:41;;;;;;;726.87;658.50;;;8.90;99.90;;;;;;5062318;28;20544;-85
2023/04/08 06:40:09;;;;;;;720.80;655.93;;;9.00;99.90;;;;;;5062699;28;20829;-84
2023/04/08 06:42:37;;;;;;;734.50;667.37;;;9.10;99.90;;;;;;5039047;28;20478;-84
2023/04/08 06:45:05;;;;;;;738.73;673.53;;;9.10;99.90;;;;;;5063428;28;20538;-83
2023/04/08 06:47:32;;;;;;;731.50;667.50;;;9.20;99.90;;;;;;5071311;28;20479;-83
2023/04/08 06:49:59;;;;;;;735.73;673.37;;;9.20;99.90;;;;;;5074066;28;20537;-83
2023/04/08 06:52:27;;;;;;;726.20;666.50;;;9.20;99.90;;;;;;5065142;28;20542;-83
2023/04/08 06:54:54;;;;;;;726.83;668.30;;;9.40;99.90;;;;;;5061268;28;20468;-84
2023/04/08 06:57:21;;;;;;;713.53;658.00;;;9.40;99.90;;;;;;5074291;28;20462;-83
2023/04/08 06:59:49;;;;;;;707.20;653.03;;;9.50;99.90;;;;;;5048885;28;20477;-83
2023/04/08 07:02:16;;;;;;;696.63;646.50;;;9.50;99.90;;;;;;5060544;28;20461;-83
2023/04/08 07:04:42;;;;;;;690.63;641.50;;;9.50;99.90;;;;;;5036548;28;20479;-83
2023/04/08 07:07:09;;;;;;;579.15;546.78;;;9.60;99.90;;;;;;5066858;28;20457;-83
2023/04/08 07:09:38;;;;;;;590.53;558.07;;;9.50;99.90;;;;;;5069934;28;20216;-82
2023/04/08 07:12:06;;;;;;;607.60;576.77;;;9.60;99.90;;;;;;5063752;28;20491;-83
2023/04/08 07:14:33;;;;;;;603.30;573.53;;;9.60;99.90;;;;;;5072762;28;20475;-83
2023/04/08 07:16:59;;;;;;;556.13;529.90;;;9.80;99.90;;;;;;5060556;28;21002;-83
2023/04/08 07:19:27;;;;;;;389.92;372.45;;;9.80;99.90;;;;;;5068674;28;20532;-82
2023/04/08 07:21:54;;;;;;;436.47;417.87;;;9.90;99.90;;;;;;5053152;28;20451;-83
2023/04/08 07:24:21;;;;;;;395.47;377.23;;;10.00;99.90;;;;;;5057301;28;20454;-80
2023/04/08 07:26:51;;;;;;;288.73;275.70;;;10.00;99.90;;;;;;5059542;28;20456;-83
2023/04/08 07:29:18;;;;;;;385.63;370.13;;;10.00;99.90;;;;;;5072706;28;20481;-83
2023/04/08 07:31:45;;;;;;;164.93;154.93;;;10.20;99.90;;;;;;5084372;22;20495;-79
2023/04/08 07:34:12;;;;;;;64.67;58.10;;;10.20;99.90;;;;;;5052046;28;20542;-78
2023/04/08 07:36:43;;;;;;;50.10;40.53;;;10.20;99.90;;;;;;5052826;28;20455;-78
2023/04/08 07:39:11;;;;;;;62.97;56.97;;;10.00;99.90;;;;;;5052909;28;20483;-78
2023/04/08 07:41:38;;;;;;;60.00;54.43;;;10.00;99.90;;;;;;5052759;28;20451;-78
2023/04/08 07:44:08;;;;;;;97.77;91.63;;;9.90;99.90;;;;;;5052521;28;20463;-78
2023/04/08 07:46:39;;;;;;;58.97;49.17;;;9.90;99.90;;;;;;5052943;28;20453;-78
2023/04/08 07:49:07;;;;;;;86.07;77.87;;;10.00;99.90;;;;;;5053017;28;20562;-78
2023/04/08 07:51:38;;;;;;;122.83;115.47;;;10.30;99.90;;;;;;5051948;28;20532;-79
2023/04/08 07:54:05;;;;;;;120.80;110.70;;;10.50;99.90;;;;;;5052336;28;20460;-78
2023/04/08 07:56:33;;;;;;;142.50;131.47;;;10.80;99.90;;;;;;5052035;28;20509;-79
2023/04/08 07:59:00;;;;;;;86.00;58.97;;;11.10;99.90;;;;;;5051997;28;20471;-78
2023/04/08 08:01:30;;;;;;;66.53;32.10;;;10.90;99.90;;;;;;5052262;28;20443;-78
2023/04/08 08:04:00;;;;;;;74.63;35.60;;;10.70;99.90;;;;;;5051732;28;20451;-78
2023/04/08 08:06:27;;;;;;;65.57;34.67;;;10.80;99.90;;;;;;5048403;28;20455;-79
2023/04/08 08:08:53;;;;;;;49.23;26.47;;;10.90;99.90;;;;;;5047485;28;20600;-79
2023/04/08 08:11:21;;;;;;;73.17;35.00;;;10.90;99.90;;;;;;5031778;28;20487;-79
2023/04/08 08:13:48;;;;;;;55.40;31.33;;;10.80;99.90;;;;;;5044529;28;20447;-79
2023/04/08 08:16:16;;;;;;;80.13;38.67;;;10.90;99.90;;;;;;5045176;28;20451;-78
2023/04/08 08:18:45;;;;;;;59.23;31.43;;;11.10;99.90;;;;;;5051675;28;20475;-79
2023/04/08 08:21:11;;;;;;;59.10;28.63;;;11.00;99.90;;;;;;5046878;28;20452;-80
2023/04/08 08:23:40;;;;;;;49.23;27.57;;;10.80;99.90;;;;;;5051858;28;20534;-82
2023/04/08 08:26:09;;;;;;;65.65;31.05;;;10.80;99.90;;;;;;5050653;28;20947;-81
2023/04/08 08:28:37;;;;;;;63.10;27.10;;;10.70;99.90;;;;;;5051343;28;20212;-79
2023/04/08 08:31:04;;;;;;;64.93;31.83;;;10.80;99.90;;;;;;5049766;28;20471;-78
2023/04/08 08:33:32;;;;;;;66.90;30.70;;;11.00;99.90;;;;;;5050157;28;20455;-73
2023/04/08 08:36:04;;;;;;;47.70;24.10;;;11.30;99.90;;;;;;5039727;28;20460;-79
2023/04/08 08:38:32;;;;;;;44.87;21.37;;;11.40;99.90;;;;;;5031512;28;20485;-83
2023/04/08 08:41:03;;;;;;;60.40;30.27;;;11.80;99.90;;;;;;5040958;28;20469;-81
2023/04/08 08:43:32;;;;;;;61.00;31.90;;;11.90;99.90;;;;;;5049487;28;20462;-80
2023/04/08 08:45:59;;;;;;;54.40;27.60;;;11.80;99.90;;;;;;5040949;28;20460;-79
2023/04/08 08:48:26;;;;;;;65.03;32.93;;;11.60;99.90;;;;;;5031140;28;20838;-78
2023/04/08 08:50:53;;;;;;;54.93;26.97;;;11.50;99.90;;;;;;5031603;28;20997;-80
2023/04/08 08:53:22;;;;;;;46.30;24.90;;;11.50;99.90;;;;;;5031543;28;20462;-78
2023/04/08 08:55:51;;;;;;;71.27;32.53;;;11.20;99.90;;;;;;5041161;28;20451;-78
2023/04/08 08:58:18;;;;;;;64.37;32.40;;;11.20;99.90;;;;;;5040065;28;20464;-78
2023/04/08 09:00:45;;;;;;;58.20;26.67;;;11.40;99.90;;;;;;5032364;28;20981;-77
2023/04/08 09:03:21;;;;;;;68.70;35.23;;;11.10;99.90;;;;;;5039895;28;20447;-77
2023/04/08 09:05:49;;;;;;;44.00;23.07;;;11.10;99.90;;;;;;5044430;28;20486;-77
2023/04/08 09:08:28;;;;;;;36.33;19.97;;;11.00;99.90;;;;;;5031457;28;20545;-78
2023/04/08 09:10:56;;;;;;;29.40;17.83;;;10.90;99.90;;;;;;5038872;28;20467;-77
2023/04/08 09:13:23;;;;;;;55.17;25.90;;;11.00;99.90;;;;;;5032077;28;20544;-77
2023/04/08 09:16:03;;;;;;;58.27;30.60;;;10.90;99.90;;;;;;5046735;28;20448;-77
2023/04/08 09:18:32;;;;;;;63.17;32.60;;;11.00;99.90;;;;;;5046557;28;20466;-77
2023/04/08 09:21:01;;;;;;;45.93;24.67;;;10.90;99.90;;;;;;5051917;28;20517;-77
2023/04/08 09:23:41;;;;;;;48.70;26.10;;;11.00;99.90;;;;;;5050628;28;20448;-77
2023/04/08 09:26:13;;;;;;;47.37;25.50;;;11.00;99.90;;;;;;5049118;28;20447;-74
2023/04/08 09:28:41;;;;;;;51.57;28.90;;;11.30;99.90;;;;;;5051167;28;20511;-76
2023/04/08 09:31:21;;;;;;;41.93;20.73;;;11.20;99.90;;;;;;5036063;28;20853;-76
2023/04/08 09:33:48;;;;;;;36.27;17.47;;;11.20;99.90;;;;;;5031036;28;20503;-76
2023/04/08 09:36:16;;;;;;;45.80;24.40;;;11.20;99.90;;;;;;5032289;28;20456;-78
2023/04/08 09:38:46;;;;;;;36.17;21.53;;;11.10;99.90;;;;;;5045447;28;20467;-78
2023/04/08 09:41:15;;;;;;;48.10;27.13;;;11.20;99.90;;;;;;5042898;28;20443;-77
2023/04/08 09:43:47;;;;;;;39.27;22.30;;;11.30;99.90;;;;;;5050897;28;20521;-77
2023/04/08 09:46:16;;;;;;;37.30;22.03;;;11.20;99.90;;;;;;5045690;28;20538;-77
2023/04/08 09:48:50;;;;;;;49.43;27.97;;;11.40;99.90;;;;;;5045086;28;20499;-76
2023/04/08 09:51:18;;;;;;;38.30;19.10;;;11.20;99.90;;;;;;5033902;28;20468;-77
2023/04/08 09:53:49;;;;;;;39.15;20.98;;;11.20;99.90;;;;;;5030245;28;20454;-77
2023/04/08 09:56:20;;;;;;;32.13;19.23;;;11.00;99.90;;;;;;5030897;28;20229;-77
2023/04/08 09:58:54;;;;;;;25.63;16.60;;;10.90;99.90;;;;;;5048926;28;20517;-77
2023/04/08 10:01:28;;;;;;;31.70;17.27;;;10.70;99.90;;;;;;5050794;28;20451;-77
2023/04/08 10:03:57;;;;;;;18.40;11.33;;;10.70;99.90;;;;;;5033298;28;20535;-77
2023/04/08 10:06:30;;;;;;;17.17;10.53;;;10.50;99.90;;;;;;5050890;28;20455;-77
2023/04/08 10:08:58;;;;;;;21.30;14.20;;;10.60;99.90;;;;;;5031686;28;20526;-77
2023/04/08 10:11:26;;;;;;;20.07;11.57;;;10.70;99.90;;;;;;5030568;28;20476;-77
2023/04/08 10:13:53;;;;;;;24.73;13.20;;;10.70;99.90;;;;;;5045980;28;20452;-77
2023/04/08 10:16:25;;;;;;;22.93;11.20;;;10.80;99.90;;;;;;5053552;28;21011;-76
2023/04/08 10:18:54;;;;;;;21.10;13.63;;;10.90;99.90;;;;;;5054095;28;20481;-76
2023/04/08 10:21:46;;;;;;;12.37;8.63;;;10.90;99.90;;;;;;5053244;28;20969;-77
2023/04/08 10:24:23;;;;;;;25.13;15.13;;;11.10;99.90;;;;;;5054328;28;20633;-77
2023/04/08 10:26:49;;;;;;;27.58;17.90;;;11.30;99.90;;;;;;5053193;28;20482;-77
2023/04/08 10:29:35;;;;;;;26.73;17.00;;;11.10;99.90;;;;;;5052898;28;20221;-77
2023/04/08 10:32:03;;;;;;;19.80;12.80;;;11.10;99.90;;;;;;5052130;28;20475;-77
2023/04/08 10:34:30;;;;;;;12.27;9.13;;;11.00;99.90;;;;;;5052711;28;20455;-77
2023/04/08 10:37:01;;;;;;;24.80;14.97;;;11.00;99.90;;;;;;5050902;28;20832;-77
2023/04/08 10:39:30;;;;;;;18.00;10.80;;;10.90;99.90;;;;;;5033639;28;20551;-77
2023/04/08 10:41:58;;;;;;;16.07;11.87;;;10.80;99.90;;;;;;5033411;28;20456;-77
2023/04/08 10:44:26;;;;;;;23.40;13.80;;;10.80;99.90;;;;;;5031191;28;20526;-81
2023/04/08 10:46:54;;;;;;;28.50;17.60;;;10.70;99.90;;;;;;5033679;28;20457;-77
2023/04/08 10:49:21;;;;;;;24.37;16.30;;;10.90;99.90;;;;;;5033122;28;20852;-77
2023/04/08 10:51:48;;;;;;;23.37;13.63;;;11.00;99.90;;;;;;5033324;28;21007;-76
2023/04/08 10:54:17;;;;;;;29.40;15.80;;;10.80;99.90;;;;;;5036075;28;20997;-77
2023/04/08 10:56:47;;;;;;;28.67;18.93;;;10.90;99.90;;;;;;5041443;28;20448;-77
2023/04/08 10:59:16;;;;;;;23.60;14.20;;;11.20;99.90;;;;;;5049223;28;21101;-76
2023/04/08 11:01:47;;;;;;;26.07;17.03;;;11.10;99.90;;;;;;5042642;28;20448;-76
2023/04/08 11:04:18;;;;;;;19.47;11.83;;;11.00;99.90;;;;;;5037836;28;20481;-76
2023/04/08 11:06:46;;;;;;;29.17;18.50;;;11.00;99.90;;;;;;5034555;28;20472;-77
2023/04/08 11:09:14;;;;;;;39.93;23.77;;;11.10;99.90;;;;;;5047930;28;20474;-76
2023/04/08 11:11:42;;;;;;;37.27;23.10;;;11.20;99.90;;;;;;5044112;28;20467;-76
2023/04/08 11:14:11;;;;;;;37.23;23.27;;;11.40;99.90;;;;;;5052653;28;20475;-76
2023/04/08 11:16:39;;;;;;;30.37;18.70;;;11.50;99.90;;;;;;5052812;28;20451;-76
2023/04/08 11:19:06;;;;;;;38.03;23.97;;;11.60;99.90;;;;;;5053249;28;21045;-77
2023/04/08 11:21:37;;;;;;;41.00;26.83;;;11.80;99.90;;;;;;5043178;28;20535;-76
2023/04/08 11:24:10;;;;;;;30.87;17.70;;;11.70;99.90;;;;;;5032643;28;20468;-76
2023/04/08 11:26:38;;;;;;;39.33;24.13;;;11.80;99.90;;;;;;5051729;28;20461;-76
2023/04/08 11:29:06;;;;;;;26.83;17.00;;;12.20;99.90;;;;;;5052748;28;20899;-76
2023/04/08 11:31:35;;;;;;;29.07;17.20;;;12.00;99.90;;;;;;5046430;28;20553;-76
2023/04/08 11:34:02;;;;;;;24.50;16.87;;;12.00;99.90;;;;;;5035297;28;20456;-76
2023/04/08 11:36:30;;;;;;;34.67;23.97;;;11.80;99.90;;;;;;5044154;28;20517;-76
2023/04/08 11:38:57;;;;;;;36.83;22.70;;;11.90;99.90;;;;;;5046588;28;20514;-77
2023/04/08 11:41:25;;;;;;;33.57;21.13;;;12.00;99.90;;;;;;5042117;28;20848;-78
2023/04/08 11:43:56;;;;;;;28.03;17.13;;;12.00;99.90;;;;;;5045997;28;20452;-76
2023/04/08 11:46:23;;;;;;;31.77;19.13;;;12.10;99.90;;;;;;5041896;28;20448;-76
2023/04/08 11:49:02;;;;;;;36.00;23.40;;;12.20;99.90;;;;;;5036509;28;20484;-76
2023/04/08 11:51:33;;;;;;;25.87;15.10;;;12.70;99.90;;;;;;5040826;28;20453;-76
2023/04/08 11:54:00;;;;;;;23.07;12.80;;;12.90;99.90;;;;;;5040949;28;20460;-76
2023/04/08 11:56:29;;;;;;;36.90;23.30;;;12.80;98.80;;;;;;5044676;28;20448;-76
2023/04/08 11:58:56;;;;;;;40.33;25.40;;;13.40;98.80;;;;;;5032940;28;20472;-77
2023/04/08 12:01:25;;;;;;;25.87;18.27;;;13.70;99.30;;;;;;5033391;28;20549;-76
2023/04/08 12:03:59;;;;;;;31.10;21.80;;;13.30;95.70;;;;;;5048204;28;20451;-76
2023/04/08 12:06:28;;;;;;;31.60;18.70;;;13.50;95.80;;;;;;5050566;28;20492;-77
2023/04/08 12:08:56;;;;;;;41.97;25.03;;;13.30;97.60;;;;;;5039090;28;20506;-76
2023/04/08 12:11:24;;;;;;;47.03;23.60;;;13.50;94.60;;;;;;5037816;28;21026;-76
2023/04/08 12:13:52;;;;;;;33.57;21.20;;;13.50;96.40;;;;;;5043959;28;20447;-77
2023/04/08 12:16:20;;;;;;;39.63;23.77;;;13.50;96.70;;;;;;5053138;28;20456;-77
2023/04/08 12:18:47;;;;;;;30.07;14.27;;;13.70;96.10;;;;;;5036208;28;20501;-77
2023/04/08 12:21:14;;;;;;;40.83;24.77;;;13.50;93.60;;;;;;5032306;28;20457;-76
2023/04/08 12:23:43;;;;;;;42.93;26.43;;;13.70;94.10;;;;;;5036750;28;20471;-77
2023/04/08 12:26:10;;;;;;;39.10;20.93;;;13.50;95.10;;;;;;5051775;28;20538;-76
2023/04/08 12:28:37;;;;;;;42.93;23.70;;;13.40;94.40;;;;;;5050384;28;20563;-76